createdAt,value
2017-06-30T00:00:41.328Z,20.66
2017-06-30T00:03:09.666Z,20.49
2017-06-30T00:05:38.493Z,20.66
2017-06-30T00:08:06.838Z,20.34
2017-06-30T00:10:35.186Z,20.21
2017-06-30T00:13:03.950Z,20.21
2017-06-30T00:15:32.301Z,20.08
2017-06-30T00:18:00.633Z,20.02
2017-06-30T00:20:29.277Z,19.87
2017-06-30T00:22:57.601Z,19.94
2017-06-30T00:25:25.956Z,20.02
2017-06-30T00:27:54.858Z,20.16
2017-06-30T00:30:23.183Z,20.12
2017-06-30T00:32:51.519Z,20.04
2017-06-30T00:35:20.486Z,20.04
2017-06-30T00:37:48.847Z,20.10
2017-06-30T00:40:17.966Z,20.06
2017-06-30T00:42:47.943Z,19.98
2017-06-30T00:45:16.282Z,19.90
2017-06-30T00:47:44.615Z,19.67
2017-06-30T00:50:13.437Z,19.60
2017-06-30T00:52:41.811Z,19.67
2017-06-30T00:55:10.139Z,19.61
2017-06-30T00:57:39.081Z,19.29
2017-06-30T01:00:07.407Z,19.45
2017-06-30T01:02:35.741Z,19.55
2017-06-30T01:05:04.426Z,19.37
2017-06-30T01:07:32.802Z,19.32
2017-06-30T01:10:01.130Z,19.20
2017-06-30T01:12:29.791Z,19.24
2017-06-30T01:14:58.130Z,19.05
2017-06-30T01:17:27.218Z,19.14
2017-06-30T01:19:56.165Z,19.29
2017-06-30T01:22:24.501Z,19.07
2017-06-30T01:24:52.818Z,19.17
2017-06-30T01:27:21.666Z,19.19
2017-06-30T01:29:49.996Z,19.20
2017-06-30T01:32:18.347Z,19.34
2017-06-30T01:34:47.124Z,19.22
2017-06-30T01:37:15.485Z,19.16
2017-06-30T01:39:43.833Z,19.37
2017-06-30T01:42:12.903Z,18.92
2017-06-30T01:44:41.359Z,18.87
2017-06-30T01:47:09.720Z,18.71
2017-06-30T01:49:38.373Z,18.85
2017-06-30T01:52:06.717Z,18.84
2017-06-30T01:54:35.062Z,18.83
2017-06-30T01:57:03.843Z,18.68
2017-06-30T01:59:32.196Z,18.70
2017-06-30T02:02:00.529Z,18.66
2017-06-30T02:04:29.414Z,18.85
2017-06-30T02:06:58.527Z,18.95
2017-06-30T02:09:26.873Z,18.95
2017-06-30T02:11:55.491Z,18.89
2017-06-30T02:14:23.804Z,18.95
2017-06-30T02:16:52.132Z,18.89
2017-06-30T02:19:20.790Z,18.81
2017-06-30T02:21:49.185Z,18.87
2017-06-30T02:24:17.512Z,18.86
2017-06-30T02:26:46.279Z,18.60
2017-06-30T02:29:14.616Z,18.67
2017-06-30T02:31:42.974Z,18.52
2017-06-30T02:34:11.621Z,18.82
2017-06-30T02:36:39.955Z,18.89
2017-06-30T02:39:08.292Z,18.97
2017-06-30T02:41:37.157Z,19.03
2017-06-30T02:44:05.480Z,19.10
2017-06-30T02:46:33.792Z,18.92
2017-06-30T02:49:03.427Z,18.94
2017-06-30T02:51:31.740Z,18.75
2017-06-30T02:54:00.061Z,18.78
2017-06-30T02:56:29.692Z,18.73
2017-06-30T02:58:58.006Z,18.69
2017-06-30T03:01:26.325Z,18.79
2017-06-30T03:03:55.769Z,18.73
2017-06-30T03:06:24.105Z,18.86
2017-06-30T03:08:52.424Z,18.97
2017-06-30T03:11:21.399Z,18.82
2017-06-30T03:13:49.873Z,18.77
2017-06-30T03:16:18.189Z,18.70
2017-06-30T03:18:46.851Z,18.75
2017-06-30T03:21:15.186Z,18.87
2017-06-30T03:23:43.517Z,18.87
2017-06-30T03:26:12.285Z,18.93
2017-06-30T03:28:40.616Z,18.92
2017-06-30T03:31:08.936Z,18.86
2017-06-30T03:33:38.433Z,18.86
2017-06-30T03:36:06.764Z,18.79
2017-06-30T03:38:35.080Z,18.79
2017-06-30T03:41:03.671Z,18.73
2017-06-30T03:43:32.786Z,18.65
2017-06-30T03:46:01.123Z,18.74
2017-06-30T03:48:29.816Z,18.68
2017-06-30T03:50:58.150Z,18.73
2017-06-30T03:53:26.529Z,18.70
2017-06-30T03:55:55.301Z,18.85
2017-06-30T03:58:23.642Z,18.74
2017-06-30T04:00:52.072Z,18.88
2017-06-30T04:03:20.709Z,19.04
2017-06-30T04:05:49.029Z,18.99
2017-06-30T04:08:17.350Z,19.01
2017-06-30T04:10:46.248Z,19.10
2017-06-30T04:13:14.567Z,18.89
2017-06-30T04:15:43.680Z,18.75
2017-06-30T04:18:12.405Z,18.82
2017-06-30T04:20:40.772Z,18.89
2017-06-30T04:23:09.178Z,18.86
2017-06-30T04:25:37.913Z,18.92
2017-06-30T04:28:06.274Z,18.60
2017-06-30T04:30:34.605Z,18.69
2017-06-30T04:33:03.550Z,18.78
2017-06-30T04:35:31.907Z,18.86
2017-06-30T04:38:00.237Z,18.78
2017-06-30T04:40:29.238Z,18.70
2017-06-30T04:42:57.644Z,18.35
2017-06-30T04:45:26.044Z,18.53
2017-06-30T04:47:55.539Z,18.68
2017-06-30T04:50:23.915Z,18.54
2017-06-30T04:52:52.398Z,18.50
2017-06-30T04:55:21.107Z,18.71
2017-06-30T04:57:49.505Z,18.49
2017-06-30T05:00:18.050Z,18.62
2017-06-30T05:02:46.748Z,18.59
2017-06-30T05:05:15.117Z,18.53
2017-06-30T05:07:43.530Z,18.47
2017-06-30T05:10:12.458Z,18.59
2017-06-30T05:12:40.858Z,18.59
2017-06-30T05:15:09.242Z,18.68
2017-06-30T05:17:37.956Z,18.63
2017-06-30T05:20:06.324Z,18.63
2017-06-30T05:22:34.703Z,18.82
2017-06-30T05:25:04.351Z,18.84
2017-06-30T05:27:32.761Z,18.95
2017-06-30T05:30:01.149Z,18.75
2017-06-30T05:32:29.997Z,18.58
2017-06-30T05:34:58.378Z,18.50
2017-06-30T05:37:26.768Z,18.67
2017-06-30T05:39:55.414Z,18.55
2017-06-30T05:42:23.880Z,18.69
2017-06-30T05:44:52.257Z,18.61
2017-06-30T05:47:21.252Z,18.74
2017-06-30T05:49:49.613Z,18.93
2017-06-30T05:52:18.009Z,18.97
2017-06-30T05:54:46.742Z,18.94
2017-06-30T05:57:15.173Z,18.95
2017-06-30T05:59:43.603Z,18.95
2017-06-30T06:02:12.351Z,18.95
2017-06-30T06:04:40.708Z,19.09
2017-06-30T06:07:09.074Z,19.19
2017-06-30T06:09:38.036Z,19.26
2017-06-30T06:12:06.378Z,19.06
2017-06-30T06:14:34.856Z,19.16
2017-06-30T06:17:03.538Z,19.07
2017-06-30T06:19:31.923Z,19.05
2017-06-30T06:22:00.324Z,19.01
2017-06-30T06:24:29.122Z,19.04
2017-06-30T06:26:57.492Z,18.97
2017-06-30T06:29:26.602Z,19.03
2017-06-30T06:31:55.422Z,19.07
2017-06-30T06:34:23.742Z,19.05
2017-06-30T06:36:52.091Z,19.14
2017-06-30T06:39:20.758Z,19.03
2017-06-30T06:41:49.091Z,19.01
2017-06-30T06:44:17.419Z,19.05
2017-06-30T06:46:46.041Z,18.91
2017-06-30T06:49:14.383Z,18.93
2017-06-30T06:51:42.713Z,19.00
2017-06-30T06:54:11.525Z,18.84
2017-06-30T06:56:39.869Z,18.78
2017-06-30T06:59:08.973Z,18.88
2017-06-30T07:01:38.406Z,18.68
2017-06-30T07:04:06.753Z,18.81
2017-06-30T07:06:35.114Z,18.94
2017-06-30T07:09:04.055Z,18.87
2017-06-30T07:11:32.399Z,18.55
2017-06-30T07:14:00.773Z,18.63
2017-06-30T07:16:29.534Z,18.66
2017-06-30T07:18:57.892Z,18.42
2017-06-30T07:21:26.226Z,18.65
2017-06-30T07:23:55.160Z,18.59
2017-06-30T07:26:23.497Z,18.77
2017-06-30T07:28:51.829Z,18.70
2017-06-30T07:31:20.429Z,18.68
2017-06-30T07:33:48.766Z,18.71
2017-06-30T07:36:17.097Z,18.94
2017-06-30T07:38:46.234Z,18.87
2017-06-30T07:41:14.584Z,18.94
2017-06-30T07:43:42.931Z,18.68
2017-06-30T07:46:11.923Z,18.80
2017-06-30T07:48:40.259Z,18.75
2017-06-30T07:51:09.370Z,18.94
2017-06-30T07:53:38.005Z,19.13
2017-06-30T07:56:06.435Z,19.31
2017-06-30T07:58:34.782Z,19.11
2017-06-30T08:01:04.975Z,19.07
2017-06-30T08:03:33.302Z,19.23
2017-06-30T08:06:01.653Z,19.32
2017-06-30T08:08:31.031Z,19.12
2017-06-30T08:10:59.384Z,19.00
2017-06-30T08:13:27.727Z,18.98
2017-06-30T08:15:57.126Z,19.01
2017-06-30T08:18:25.468Z,18.84
2017-06-30T08:20:53.816Z,18.91
2017-06-30T08:23:22.798Z,19.13
2017-06-30T08:25:51.153Z,19.11
2017-06-30T08:28:19.484Z,19.02
2017-06-30T08:30:48.250Z,19.19
2017-06-30T08:33:16.593Z,19.12
2017-06-30T08:35:44.941Z,18.89
2017-06-30T08:38:13.590Z,18.92
2017-06-30T08:40:41.945Z,18.84
2017-06-30T08:43:10.299Z,18.70
2017-06-30T08:45:39.154Z,18.97
2017-06-30T08:48:07.495Z,18.97
2017-06-30T08:50:35.847Z,19.16
2017-06-30T08:53:04.590Z,19.28
2017-06-30T08:55:32.925Z,19.45
2017-06-30T08:58:01.291Z,19.36
2017-06-30T09:00:29.925Z,19.11
2017-06-30T09:02:58.270Z,19.16
2017-06-30T09:05:26.612Z,19.14
2017-06-30T09:07:55.458Z,19.06
2017-06-30T09:10:23.835Z,19.03
2017-06-30T09:12:52.978Z,19.22
2017-06-30T09:15:21.608Z,19.40
2017-06-30T09:17:50.739Z,19.47
2017-06-30T09:20:19.070Z,19.35
2017-06-30T09:22:48.012Z,19.29
2017-06-30T09:25:16.362Z,19.35
2017-06-30T09:27:45.494Z,19.46
2017-06-30T09:30:14.358Z,19.68
2017-06-30T09:32:42.712Z,19.54
2017-06-30T09:35:11.095Z,19.57
2017-06-30T09:37:39.724Z,19.58
2017-06-30T09:40:08.085Z,19.36
2017-06-30T09:42:36.443Z,19.50
2017-06-30T09:45:05.367Z,19.40
2017-06-30T09:47:33.729Z,19.40
2017-06-30T09:50:02.062Z,19.72
2017-06-30T09:52:31.192Z,19.96
2017-06-30T09:54:59.568Z,19.80
2017-06-30T09:57:27.876Z,19.48
2017-06-30T09:59:56.509Z,19.67
2017-06-30T10:02:24.870Z,19.61
2017-06-30T10:04:53.194Z,19.35
2017-06-30T10:07:22.093Z,19.42
2017-06-30T10:09:50.422Z,19.63
2017-06-30T10:12:18.763Z,19.88
2017-06-30T10:14:47.581Z,19.65
2017-06-30T10:17:15.902Z,19.56
2017-06-30T10:19:44.243Z,19.65
2017-06-30T10:22:12.898Z,20.02
2017-06-30T10:24:41.277Z,20.00
2017-06-30T10:27:09.622Z,19.80
2017-06-30T10:29:38.233Z,19.78
2017-06-30T10:32:06.578Z,19.92
2017-06-30T10:34:34.915Z,19.79
2017-06-30T10:37:03.691Z,19.79
2017-06-30T10:39:32.047Z,19.79
2017-06-30T10:42:01.206Z,19.98
2017-06-30T10:44:29.865Z,19.97
2017-06-30T10:46:58.188Z,19.78
2017-06-30T10:49:26.554Z,20.04
2017-06-30T10:51:55.193Z,20.06
2017-06-30T10:54:23.569Z,19.68
2017-06-30T10:56:51.913Z,19.80
2017-06-30T10:59:20.890Z,19.82
2017-06-30T11:01:49.228Z,19.74
2017-06-30T11:04:17.580Z,20.15
2017-06-30T11:06:46.671Z,20.13
2017-06-30T11:09:15.044Z,20.29
2017-06-30T11:11:44.147Z,20.42
2017-06-30T11:14:12.819Z,20.12
2017-06-30T11:16:41.133Z,19.94
2017-06-30T11:19:09.459Z,19.75
2017-06-30T11:21:38.371Z,19.71
2017-06-30T11:24:06.730Z,19.54
2017-06-30T11:26:35.063Z,19.95
2017-06-30T11:29:03.711Z,19.99
2017-06-30T11:31:32.065Z,19.99
2017-06-30T11:34:00.411Z,20.02
2017-06-30T11:36:29.305Z,19.99
2017-06-30T11:38:57.644Z,19.95
2017-06-30T11:41:26.028Z,20.00
2017-06-30T11:43:54.974Z,20.05
2017-06-30T11:46:23.523Z,20.16
2017-06-30T11:48:52.705Z,20.32
2017-06-30T11:51:21.361Z,20.03
2017-06-30T11:53:49.805Z,20.26
2017-06-30T11:56:18.206Z,20.11
2017-06-30T11:58:46.884Z,19.99
2017-06-30T12:01:15.268Z,20.28
2017-06-30T12:03:43.730Z,20.47
2017-06-30T12:06:12.632Z,20.64
2017-06-30T12:08:41.057Z,20.57
2017-06-30T12:11:10.197Z,20.73
2017-06-30T12:13:38.992Z,20.64
2017-06-30T12:16:07.348Z,20.56
2017-06-30T12:18:35.838Z,20.93
2017-06-30T12:21:04.515Z,20.87
2017-06-30T12:23:33.670Z,20.71
2017-06-30T12:26:02.049Z,21.10
2017-06-30T12:28:30.891Z,20.94
2017-06-30T12:30:59.264Z,20.55
2017-06-30T12:33:27.663Z,20.71
2017-06-30T12:35:56.326Z,20.88
2017-06-30T12:38:24.671Z,20.75
2017-06-30T12:40:53.050Z,21.03
2017-06-30T12:43:21.788Z,21.25
2017-06-30T12:45:50.297Z,21.06
2017-06-30T12:48:18.674Z,21.37
2017-06-30T12:50:47.444Z,21.11
2017-06-30T12:53:15.821Z,21.31
2017-06-30T12:55:44.238Z,21.26
2017-06-30T12:58:12.904Z,21.10
2017-06-30T13:00:41.357Z,21.26
2017-06-30T13:03:09.753Z,21.29
2017-06-30T13:05:38.481Z,20.96
2017-06-30T13:08:06.903Z,20.58
2017-06-30T13:10:35.321Z,19.79
2017-06-30T13:13:04.193Z,20.01
2017-06-30T13:15:32.635Z,20.01
2017-06-30T13:18:01.236Z,20.05
2017-06-30T13:20:29.923Z,20.18
2017-06-30T13:22:58.334Z,20.45
2017-06-30T13:25:26.762Z,20.36
2017-06-30T13:27:55.505Z,20.44
2017-06-30T13:30:23.924Z,20.50
2017-06-30T13:32:52.306Z,20.63
2017-06-30T13:35:21.329Z,20.76
2017-06-30T13:37:49.795Z,20.71
2017-06-30T13:40:18.244Z,20.69
2017-06-30T13:42:46.910Z,20.66
2017-06-30T13:45:15.328Z,20.26
2017-06-30T13:47:43.782Z,20.10
2017-06-30T13:50:12.659Z,20.21
2017-06-30T13:52:41.089Z,20.15
2017-06-30T13:55:09.585Z,20.16
2017-06-30T13:57:38.553Z,20.00
2017-06-30T14:00:07.006Z,20.07
2017-06-30T14:02:35.400Z,20.00
2017-06-30T14:05:04.136Z,19.99
2017-06-30T14:07:32.566Z,20.15
2017-06-30T14:10:00.971Z,20.01
2017-06-30T14:12:30.633Z,20.02
2017-06-30T14:14:59.086Z,19.81
2017-06-30T14:17:27.616Z,19.99
2017-06-30T14:19:56.631Z,20.13
2017-06-30T14:22:25.006Z,20.17
2017-06-30T14:24:53.371Z,20.12
2017-06-30T14:27:22.085Z,20.23
2017-06-30T14:29:50.557Z,20.37
2017-06-30T14:32:19.001Z,20.39
2017-06-30T14:34:47.723Z,20.41
2017-06-30T14:37:16.169Z,20.24
2017-06-30T14:39:44.552Z,20.41
2017-06-30T14:42:13.412Z,20.69
2017-06-30T14:44:41.835Z,20.70
2017-06-30T14:47:10.223Z,20.53
2017-06-30T14:49:38.848Z,20.45
2017-06-30T14:52:07.317Z,20.56
2017-06-30T14:54:35.720Z,20.46
2017-06-30T14:57:04.502Z,20.45
2017-06-30T14:59:32.933Z,20.03
2017-06-30T15:02:01.335Z,19.95
2017-06-30T15:04:30.263Z,19.93
2017-06-30T15:06:58.745Z,19.99
2017-06-30T15:09:27.231Z,20.21
2017-06-30T15:11:55.930Z,20.42
2017-06-30T15:14:24.420Z,20.44
2017-06-30T15:16:52.854Z,20.30
2017-06-30T15:19:22.515Z,20.51
2017-06-30T15:21:50.948Z,20.41
2017-06-30T15:24:19.442Z,20.57
2017-06-30T15:26:48.547Z,20.48
2017-06-30T15:29:17.055Z,20.57
2017-06-30T15:31:45.484Z,20.49
2017-06-30T15:34:14.442Z,20.56
2017-06-30T15:36:42.813Z,20.19
2017-06-30T15:39:11.216Z,20.21
2017-06-30T15:41:40.118Z,20.31
2017-06-30T15:44:08.540Z,20.18
2017-06-30T15:46:36.972Z,20.28
2017-06-30T15:49:05.766Z,20.45
2017-06-30T15:51:34.907Z,20.46
2017-06-30T15:54:03.344Z,20.25
2017-06-30T15:56:33.002Z,20.32
2017-06-30T15:59:01.422Z,20.27
2017-06-30T16:01:29.822Z,20.22
2017-06-30T16:03:58.491Z,19.89
2017-06-30T16:06:26.876Z,19.75
2017-06-30T16:08:55.325Z,19.89
2017-06-30T16:11:24.108Z,19.71
2017-06-30T16:13:52.559Z,19.68
2017-06-30T16:16:20.953Z,19.81
2017-06-30T16:18:49.864Z,19.77
2017-06-30T16:21:18.318Z,19.82
2017-06-30T16:23:46.806Z,19.46
2017-06-30T16:26:15.535Z,19.43
2017-06-30T16:28:44.009Z,19.49
2017-06-30T16:31:12.430Z,19.31
2017-06-30T16:33:41.237Z,19.42
2017-06-30T16:36:12.845Z,19.16
2017-06-30T16:38:41.308Z,19.35
2017-06-30T16:41:10.104Z,19.74
2017-06-30T16:43:38.502Z,19.67
2017-06-30T16:46:07.719Z,19.84
2017-06-30T16:48:37.110Z,19.87
2017-06-30T16:51:06.341Z,19.91
2017-06-30T16:53:34.792Z,20.03
2017-06-30T16:56:03.759Z,19.81
2017-06-30T16:58:32.227Z,19.72
2017-06-30T17:01:00.606Z,19.65
2017-06-30T17:03:29.393Z,19.90
2017-06-30T17:05:57.788Z,19.88
2017-06-30T17:08:26.210Z,19.91
2017-06-30T17:10:55.124Z,19.90
2017-06-30T17:13:23.545Z,19.85
2017-06-30T17:15:51.962Z,19.64
2017-06-30T17:18:21.308Z,19.62
2017-06-30T17:20:49.736Z,19.53
2017-06-30T17:23:18.180Z,19.58
2017-06-30T17:25:47.090Z,19.59
2017-06-30T17:28:15.480Z,19.58
2017-06-30T17:30:44.736Z,19.57
2017-06-30T17:33:13.490Z,19.50
2017-06-30T17:35:42.659Z,19.37
2017-06-30T17:38:11.098Z,19.40
2017-06-30T17:40:40.121Z,19.37
2017-06-30T17:43:08.598Z,19.44
2017-06-30T17:45:37.023Z,19.36
2017-06-30T17:48:05.958Z,19.40
2017-06-30T17:50:34.412Z,19.41
2017-06-30T17:53:02.831Z,19.53
2017-06-30T17:55:31.874Z,19.05
2017-06-30T17:58:00.275Z,19.20
2017-06-30T18:00:28.726Z,19.36
2017-06-30T18:02:57.888Z,19.44
2017-06-30T18:05:26.421Z,19.27
2017-06-30T18:07:54.885Z,19.35
2017-06-30T18:10:23.633Z,19.15
2017-06-30T18:12:52.112Z,19.00
2017-06-30T18:15:20.537Z,19.05
2017-06-30T18:17:49.313Z,18.81
2017-06-30T18:20:17.743Z,19.00
2017-06-30T18:22:46.211Z,18.99
2017-06-30T18:25:15.369Z,19.08
2017-06-30T18:27:43.848Z,19.07
2017-06-30T18:30:12.337Z,19.04
2017-06-30T18:32:41.388Z,19.17
2017-06-30T18:35:09.832Z,19.09
2017-06-30T18:37:38.273Z,18.89
2017-06-30T18:40:07.223Z,18.56
2017-06-30T18:42:35.694Z,18.99
2017-06-30T18:45:04.180Z,18.70
2017-06-30T18:47:33.306Z,18.62
2017-06-30T18:50:01.715Z,18.88
2017-06-30T18:52:30.260Z,19.09
2017-06-30T18:54:59.000Z,18.95
2017-06-30T18:57:27.449Z,19.09
2017-06-30T18:59:55.893Z,19.01
2017-06-30T19:02:24.686Z,18.99
2017-06-30T19:04:53.169Z,18.94
2017-06-30T19:07:41.279Z,18.87
2017-06-30T19:10:09.812Z,18.73
2017-06-30T19:12:38.214Z,18.89
2017-06-30T19:15:07.115Z,18.68
2017-06-30T19:17:35.481Z,18.66
2017-06-30T19:20:03.863Z,18.81
2017-06-30T19:22:32.521Z,18.62
2017-06-30T19:25:00.972Z,18.63
2017-06-30T19:27:30.151Z,18.63
2017-06-30T19:29:58.927Z,18.72
2017-06-30T19:32:27.365Z,18.54
2017-06-30T19:34:55.881Z,18.61
2017-06-30T19:37:24.772Z,18.44
2017-06-30T19:39:53.236Z,18.59
2017-06-30T19:42:21.615Z,18.64
2017-06-30T19:44:50.370Z,18.43
2017-06-30T19:47:18.797Z,18.35
2017-06-30T19:49:47.223Z,18.54
2017-06-30T19:52:16.263Z,18.59
2017-06-30T19:54:44.648Z,18.23
2017-06-30T19:57:13.105Z,18.51
2017-06-30T19:59:41.905Z,18.28
2017-06-30T20:02:10.386Z,18.00
2017-06-30T20:04:38.819Z,18.11
2017-06-30T20:07:07.490Z,18.29
2017-06-30T20:09:35.900Z,18.27
2017-06-30T20:12:04.344Z,18.39
2017-06-30T20:14:33.504Z,18.46
2017-06-30T20:17:01.982Z,18.18
2017-06-30T20:19:30.427Z,18.28
2017-06-30T20:21:59.877Z,18.08
2017-06-30T20:24:28.340Z,18.06
2017-06-30T20:26:56.737Z,18.01
2017-06-30T20:29:25.503Z,18.08
2017-06-30T20:31:54.726Z,18.34
2017-06-30T20:34:23.184Z,18.49
2017-06-30T20:36:52.695Z,18.37
2017-06-30T20:39:21.172Z,18.39
2017-06-30T20:41:49.588Z,18.18
2017-06-30T20:44:18.564Z,18.12
2017-06-30T20:46:46.991Z,18.13
2017-06-30T20:49:15.453Z,17.81
2017-06-30T20:51:44.714Z,18.03
2017-06-30T20:54:13.110Z,18.00
2017-06-30T20:56:41.478Z,18.03
2017-06-30T20:59:10.402Z,18.15
2017-06-30T21:01:38.865Z,18.05
2017-06-30T21:04:07.277Z,18.00
2017-06-30T21:06:35.977Z,17.90
2017-06-30T21:09:04.433Z,17.82
2017-06-30T21:11:32.912Z,17.72
2017-06-30T21:14:01.740Z,17.80
2017-06-30T21:16:30.231Z,17.90
2017-06-30T21:18:58.646Z,17.72
2017-06-30T21:21:27.649Z,17.78
2017-06-30T21:23:56.076Z,17.78
2017-06-30T21:26:24.518Z,17.90
2017-06-30T21:28:53.284Z,17.75
2017-06-30T21:31:21.671Z,17.69
2017-06-30T21:33:50.106Z,17.99
2017-06-30T21:36:18.789Z,18.17
2017-06-30T21:38:47.191Z,18.03
2017-06-30T21:41:15.623Z,18.00
2017-06-30T21:43:44.688Z,18.21
2017-06-30T21:46:13.072Z,18.09
2017-06-30T21:48:41.484Z,18.04
2017-06-30T21:51:10.166Z,17.87
2017-06-30T21:53:38.854Z,17.38
2017-06-30T21:56:07.291Z,17.80
2017-06-30T21:58:36.100Z,17.66
2017-06-30T22:01:04.568Z,17.84
2017-06-30T22:03:32.938Z,17.82
2017-06-30T22:06:01.680Z,17.77
2017-06-30T22:08:30.889Z,17.76
2017-06-30T22:10:59.281Z,17.91
2017-06-30T22:13:28.713Z,17.86
2017-06-30T22:15:57.146Z,17.82
2017-06-30T22:18:25.535Z,17.36
2017-06-30T22:20:54.964Z,17.37
2017-06-30T22:23:23.399Z,17.39
2017-06-30T22:25:51.882Z,17.49
2017-06-30T22:28:20.650Z,17.33
2017-06-30T22:30:49.046Z,17.37
2017-06-30T22:33:17.474Z,17.12
2017-06-30T22:35:46.119Z,17.08
2017-06-30T22:38:14.534Z,17.01
2017-06-30T22:40:42.966Z,16.91
2017-06-30T22:43:11.749Z,17.10
2017-06-30T22:45:40.149Z,17.25
2017-06-30T22:48:08.564Z,17.34
2017-06-30T22:50:37.443Z,16.91
2017-06-30T22:53:05.882Z,16.97
2017-06-30T22:55:34.882Z,17.26
2017-06-30T22:58:03.559Z,17.18
2017-06-30T23:00:31.940Z,17.05
2017-06-30T23:03:00.410Z,16.91
2017-06-30T23:05:29.184Z,16.90
2017-06-30T23:07:57.631Z,17.01
2017-06-30T23:10:26.779Z,16.91
2017-06-30T23:12:55.733Z,16.86
2017-06-30T23:15:24.110Z,17.04
2017-06-30T23:17:52.528Z,17.16
2017-06-30T23:20:21.597Z,17.04
2017-06-30T23:22:50.032Z,16.99
2017-06-30T23:25:18.430Z,16.67
2017-06-30T23:27:47.989Z,16.77
2017-06-30T23:30:16.432Z,16.96
2017-06-30T23:32:44.823Z,16.76
2017-06-30T23:35:13.815Z,16.79
2017-06-30T23:37:42.260Z,16.83
2017-06-30T23:40:10.677Z,17.12
2017-06-30T23:42:39.361Z,17.20
2017-06-30T23:45:07.754Z,17.10
2017-06-30T23:47:36.169Z,16.88
2017-06-30T23:50:04.908Z,16.63
2017-06-30T23:52:33.326Z,16.80
2017-06-30T23:55:01.773Z,17.09
2017-06-30T23:57:30.529Z,16.79
2017-06-30T23:59:58.915Z,16.81
